createdAt,value
2019-01-17T00:00:05.235Z,5.34
2019-01-17T00:03:00.814Z,5.33
2019-01-17T00:05:53.627Z,5.32
2019-01-17T00:08:48.389Z,5.29
2019-01-17T00:11:56.653Z,5.31
2019-01-17T00:14:34.757Z,5.28
2019-01-17T00:17:32.515Z,5.22
2019-01-17T00:20:21.226Z,5.21
2019-01-17T00:23:09.391Z,5.21
2019-01-17T00:25:54.717Z,5.24
2019-01-17T00:28:42.868Z,5.31
2019-01-17T00:31:32.625Z,5.28
2019-01-17T00:34:25.373Z,5.28
2019-01-17T00:37:15.172Z,5.30
2019-01-17T00:40:03.545Z,5.31
2019-01-17T00:42:53.316Z,5.22
2019-01-17T00:46:01.002Z,5.27
2019-01-17T00:48:44.683Z,5.19
2019-01-17T00:51:40.588Z,5.24
2019-01-17T00:54:39.304Z,5.22
2019-01-17T00:57:26.128Z,5.16
2019-01-17T01:00:24.761Z,5.08
2019-01-17T01:03:23.656Z,5.16
2019-01-17T01:06:13.685Z,5.14
2019-01-17T01:09:18.331Z,5.17
2019-01-17T01:12:00.572Z,5.17
2019-01-17T01:14:51.651Z,5.06
2019-01-17T01:17:44.504Z,5.06
2019-01-17T01:20:52.607Z,5.05
2019-01-17T01:23:45.579Z,5.02
2019-01-17T01:26:35.294Z,5.03
2019-01-17T01:29:23.538Z,5.00
2019-01-17T01:32:02.239Z,5.01
2019-01-17T01:35:06.859Z,5.01
2019-01-17T01:37:54.701Z,5.01
2019-01-17T01:40:41.069Z,5.04
2019-01-17T01:43:35.683Z,5.07
2019-01-17T01:46:37.436Z,5.14
2019-01-17T01:49:17.320Z,5.17
2019-01-17T01:51:54.021Z,5.15
2019-01-17T01:54:24.908Z,5.22
2019-01-17T01:56:55.821Z,5.15
2019-01-17T01:59:26.711Z,5.13
2019-01-17T02:01:57.604Z,5.11
2019-01-17T02:04:28.523Z,5.22
2019-01-17T02:06:59.702Z,5.23
2019-01-17T02:09:30.643Z,5.18
2019-01-17T02:12:01.625Z,5.09
2019-01-17T02:14:32.615Z,5.20
2019-01-17T02:17:03.995Z,5.11
2019-01-17T02:19:34.891Z,5.13
2019-01-17T02:22:05.899Z,5.09
2019-01-17T02:24:36.794Z,5.09
2019-01-17T02:27:07.701Z,5.19
2019-01-17T02:29:38.700Z,5.18
2019-01-17T02:32:09.586Z,5.05
2019-01-17T02:34:40.612Z,5.10
2019-01-17T02:37:11.533Z,5.04
2019-01-17T02:39:42.434Z,5.05
2019-01-17T02:42:13.368Z,5.09
2019-01-17T02:44:44.317Z,5.06
2019-01-17T02:47:15.265Z,5.11
2019-01-17T02:49:47.296Z,5.19
2019-01-17T02:52:18.508Z,5.15
2019-01-17T02:54:49.416Z,5.22
2019-01-17T02:57:20.340Z,5.19
2019-01-17T02:59:51.325Z,5.25
2019-01-17T03:02:22.203Z,5.19
2019-01-17T03:04:53.126Z,5.18
2019-01-17T03:07:24.011Z,5.21
2019-01-17T03:09:55.183Z,5.14
2019-01-17T03:12:26.332Z,5.10
2019-01-17T03:14:57.509Z,5.14
2019-01-17T03:17:28.411Z,5.07
2019-01-17T03:19:59.360Z,5.06
2019-01-17T03:22:30.370Z,5.00
2019-01-17T03:25:01.536Z,5.01
2019-01-17T03:27:32.473Z,5.02
2019-01-17T03:30:03.355Z,4.99
2019-01-17T03:32:34.314Z,4.95
2019-01-17T03:35:06.077Z,4.86
2019-01-17T03:37:37.250Z,4.82
2019-01-17T03:40:09.830Z,4.89
2019-01-17T03:42:40.786Z,4.89
2019-01-17T03:45:12.474Z,4.87
2019-01-17T03:47:44.355Z,4.88
2019-01-17T03:50:17.052Z,4.93
2019-01-17T03:52:47.998Z,4.95
2019-01-17T03:55:21.307Z,4.90
2019-01-17T03:57:52.265Z,4.90
2019-01-17T04:00:23.186Z,4.83
2019-01-17T04:02:54.112Z,4.86
2019-01-17T04:05:25.009Z,4.88
2019-01-17T04:07:56.562Z,4.97
2019-01-17T04:10:27.853Z,4.88
2019-01-17T04:12:59.124Z,4.92
2019-01-17T04:15:30.041Z,4.82
2019-01-17T04:18:00.984Z,4.83
2019-01-17T04:20:31.865Z,4.86
2019-01-17T04:23:02.738Z,4.83
2019-01-17T04:25:33.682Z,4.82
2019-01-17T04:28:04.654Z,4.83
2019-01-17T04:30:35.534Z,4.88
2019-01-17T04:33:06.840Z,4.81
2019-01-17T04:35:37.717Z,4.82
2019-01-17T04:38:08.981Z,4.85
2019-01-17T04:40:39.907Z,4.88
2019-01-17T04:43:10.770Z,4.82
2019-01-17T04:45:41.644Z,4.82
2019-01-17T04:48:12.592Z,4.70
2019-01-17T04:50:43.533Z,4.77
2019-01-17T04:53:14.400Z,4.67
2019-01-17T04:55:45.411Z,4.64
2019-01-17T04:58:16.285Z,4.61
2019-01-17T05:00:47.168Z,4.61
2019-01-17T05:03:18.084Z,4.53
2019-01-17T05:05:48.983Z,4.45
2019-01-17T05:08:19.943Z,4.54
2019-01-17T05:10:50.863Z,4.45
2019-01-17T05:13:21.737Z,4.52
2019-01-17T05:15:52.936Z,4.41
2019-01-17T05:18:24.959Z,4.58
2019-01-17T05:20:55.849Z,4.56
2019-01-17T05:23:26.753Z,4.54
2019-01-17T05:25:57.682Z,4.55
2019-01-17T05:28:28.557Z,4.50
2019-01-17T05:30:59.434Z,4.52
2019-01-17T05:33:30.352Z,4.55
2019-01-17T05:36:01.231Z,4.54
2019-01-17T05:38:32.109Z,4.45
2019-01-17T05:41:03.259Z,4.62
2019-01-17T05:43:34.142Z,4.58
2019-01-17T05:46:05.097Z,4.55
2019-01-17T05:48:36.020Z,4.58
2019-01-17T05:51:07.006Z,4.69
2019-01-17T05:53:37.879Z,4.72
2019-01-17T05:56:08.810Z,4.67
2019-01-17T05:58:39.993Z,4.63
2019-01-17T06:01:10.875Z,4.55
2019-01-17T06:03:41.794Z,4.63
2019-01-17T06:06:12.676Z,4.66
2019-01-17T06:08:43.546Z,4.70
2019-01-17T06:11:14.466Z,4.70
2019-01-17T06:13:45.340Z,4.59
2019-01-17T06:16:16.222Z,4.62
2019-01-17T06:18:47.151Z,4.57
2019-01-17T06:21:18.026Z,4.71
2019-01-17T06:23:48.995Z,4.66
2019-01-17T06:26:21.769Z,4.74
2019-01-17T06:28:52.812Z,4.63
2019-01-17T06:31:23.684Z,4.69
2019-01-17T06:33:54.606Z,4.70
2019-01-17T06:36:25.771Z,4.77
2019-01-17T06:38:57.716Z,4.68
2019-01-17T06:41:28.948Z,4.69
2019-01-17T06:43:59.823Z,4.75
2019-01-17T06:46:30.715Z,4.67
2019-01-17T06:49:01.649Z,4.63
2019-01-17T06:51:33.100Z,4.62
2019-01-17T06:54:03.979Z,4.63
2019-01-17T06:56:34.901Z,4.69
2019-01-17T06:59:05.780Z,4.62
2019-01-17T07:01:36.666Z,4.60
2019-01-17T07:04:07.603Z,4.62
2019-01-17T07:06:38.483Z,4.62
2019-01-17T07:09:13.592Z,4.64
2019-01-17T07:11:44.839Z,4.64
2019-01-17T07:14:15.703Z,4.64
2019-01-17T07:16:46.698Z,4.65
2019-01-17T07:19:18.475Z,4.64
2019-01-17T07:21:49.992Z,4.57
2019-01-17T07:24:21.493Z,4.58
2019-01-17T07:26:52.697Z,4.58
2019-01-17T07:29:24.674Z,4.61
2019-01-17T07:31:55.839Z,4.55
2019-01-17T07:34:26.759Z,4.57
2019-01-17T07:36:59.723Z,4.53
2019-01-17T07:39:30.661Z,4.52
2019-01-17T07:42:01.561Z,4.47
2019-01-17T07:44:32.450Z,4.48
2019-01-17T07:47:04.665Z,4.53
2019-01-17T07:49:35.819Z,4.52
2019-01-17T07:52:06.953Z,4.50
2019-01-17T07:54:37.832Z,4.47
2019-01-17T07:57:08.718Z,4.55
2019-01-17T07:59:39.933Z,4.49
2019-01-17T08:02:10.813Z,4.48
2019-01-17T08:04:42.223Z,4.42
2019-01-17T08:07:13.154Z,4.41
2019-01-17T08:09:44.052Z,4.61
2019-01-17T08:12:15.247Z,4.71
2019-01-17T08:14:46.149Z,4.77
2019-01-17T08:17:17.072Z,4.86
2019-01-17T08:19:47.952Z,5.08
2019-01-17T08:22:19.121Z,4.86
2019-01-17T08:24:50.631Z,4.85
2019-01-17T08:27:21.599Z,4.83
2019-01-17T08:29:52.515Z,4.67
2019-01-17T08:32:23.396Z,4.57
2019-01-17T08:34:54.265Z,4.53
2019-01-17T08:37:25.631Z,4.48
2019-01-17T08:39:56.807Z,4.34
2019-01-17T08:42:28.019Z,4.39
2019-01-17T08:44:58.919Z,4.34
2019-01-17T08:47:30.110Z,4.38
2019-01-17T08:50:01.025Z,4.35
2019-01-17T08:52:32.040Z,4.60
2019-01-17T08:55:03.245Z,6.78
2019-01-17T08:57:34.146Z,7.66
2019-01-17T09:00:06.319Z,8.53
2019-01-17T09:02:37.547Z,8.90
2019-01-17T09:05:09.866Z,9.35
2019-01-17T09:07:40.875Z,9.46
2019-01-17T09:10:16.385Z,9.60
2019-01-17T09:12:47.311Z,9.53
2019-01-17T09:15:20.262Z,9.59
2019-01-17T09:17:51.494Z,9.73
2019-01-17T09:20:22.702Z,9.16
2019-01-17T09:22:53.575Z,9.49
2019-01-17T09:25:24.496Z,9.16
2019-01-17T09:27:55.670Z,9.09
2019-01-17T09:30:26.725Z,9.12
2019-01-17T09:32:57.921Z,8.84
2019-01-17T09:35:28.807Z,8.90
2019-01-17T09:37:59.782Z,8.84
2019-01-17T09:40:30.698Z,8.65
2019-01-17T09:43:01.590Z,8.70
2019-01-17T09:45:32.570Z,8.65
2019-01-17T09:48:03.452Z,8.31
2019-01-17T09:50:34.385Z,8.31
2019-01-17T09:53:05.263Z,8.36
2019-01-17T09:55:36.175Z,8.16
2019-01-17T09:58:07.184Z,8.17
2019-01-17T10:00:38.070Z,8.09
2019-01-17T10:03:08.995Z,8.13
2019-01-17T10:05:39.894Z,7.99
2019-01-17T10:08:10.851Z,7.97
2019-01-17T10:10:41.761Z,7.94
2019-01-17T10:13:12.651Z,7.83
2019-01-17T10:15:59.179Z,7.90
2019-01-17T10:23:38.716Z,7.72
2019-01-17T10:27:04.680Z,7.83
2019-01-17T10:30:21.681Z,7.77
2019-01-17T10:33:33.582Z,7.70
2019-01-17T10:36:58.299Z,7.68
2019-01-17T10:40:28.697Z,7.54
2019-01-17T10:43:43.162Z,7.49
2019-01-17T10:47:28.887Z,7.44
2019-01-17T10:51:05.749Z,7.32
2019-01-17T10:54:05.776Z,7.22
2019-01-17T10:57:30.932Z,7.10
2019-01-17T11:00:38.290Z,7.14
2019-01-17T11:04:07.760Z,7.03
2019-01-17T11:08:02.809Z,7.13
2019-01-17T11:11:34.184Z,7.09
2019-01-17T11:15:11.814Z,7.19
2019-01-17T11:18:33.120Z,7.27
2019-01-17T11:22:11.466Z,7.22
2019-01-17T11:25:27.592Z,7.20
2019-01-17T11:28:25.090Z,7.12
2019-01-17T11:32:13.977Z,7.10
2019-01-17T11:35:45.621Z,7.19
2019-01-17T11:39:14.615Z,6.99
2019-01-17T11:42:32.891Z,6.85
2019-01-17T11:45:52.100Z,6.85
2019-01-17T11:49:15.683Z,6.92
2019-01-17T11:52:42.861Z,6.96
2019-01-17T11:55:58.132Z,6.99
2019-01-17T11:59:43.772Z,6.88
2019-01-17T12:03:10.682Z,6.91
2019-01-17T12:05:41.579Z,6.88
2019-01-17T12:08:12.465Z,6.85
2019-01-17T12:10:43.390Z,6.71
2019-01-17T12:13:17.516Z,6.66
2019-01-17T12:15:46.957Z,6.59
2019-01-17T12:18:17.937Z,6.63
2019-01-17T12:20:49.416Z,6.66
2019-01-17T12:23:20.363Z,6.55
2019-01-17T12:25:51.251Z,6.55
2019-01-17T12:28:22.145Z,6.53
2019-01-17T12:30:53.072Z,6.56
2019-01-17T12:33:24.286Z,6.56
2019-01-17T12:35:55.268Z,6.55
2019-01-17T12:38:26.753Z,6.49
2019-01-17T12:40:57.755Z,6.55
2019-01-17T12:43:28.623Z,6.60
2019-01-17T12:45:59.511Z,6.63
2019-01-17T12:48:30.420Z,6.62
2019-01-17T12:51:01.302Z,6.58
2019-01-17T12:53:32.333Z,6.63
2019-01-17T12:56:03.255Z,6.62
2019-01-17T12:58:34.211Z,6.59
2019-01-17T13:01:05.519Z,6.57
2019-01-17T13:03:36.407Z,6.48
2019-01-17T13:06:07.463Z,6.44
2019-01-17T13:08:38.349Z,6.35
2019-01-17T13:11:09.224Z,6.33
2019-01-17T13:13:40.455Z,6.23
2019-01-17T13:16:11.340Z,6.31
2019-01-17T13:18:42.290Z,6.23
2019-01-17T13:21:13.270Z,6.10
2019-01-17T13:23:44.159Z,6.14
2019-01-17T13:26:15.373Z,6.02
2019-01-17T13:28:46.377Z,5.90
2019-01-17T13:31:17.510Z,5.74
2019-01-17T13:33:48.460Z,5.73
2019-01-17T13:36:19.372Z,5.71
2019-01-17T13:38:50.415Z,5.58
2019-01-17T13:41:21.303Z,5.63
2019-01-17T13:43:52.236Z,5.48
2019-01-17T13:46:23.408Z,5.41
2019-01-17T13:48:54.303Z,5.40
2019-01-17T13:51:25.525Z,5.34
2019-01-17T13:53:56.466Z,5.28
2019-01-17T13:56:27.391Z,5.33
2019-01-17T13:58:58.264Z,5.13
2019-01-17T14:01:29.448Z,4.99
2019-01-17T14:04:00.391Z,4.91
2019-01-17T14:06:31.365Z,4.82
2019-01-17T14:09:02.295Z,4.75
2019-01-17T14:11:33.178Z,4.61
2019-01-17T14:14:04.225Z,4.71
2019-01-17T14:16:35.160Z,4.68
2019-01-17T14:19:06.043Z,4.68
2019-01-17T14:21:37.026Z,4.57
2019-01-17T14:24:08.191Z,4.68
2019-01-17T14:26:39.120Z,4.67
2019-01-17T14:29:10.044Z,4.52
2019-01-17T14:31:40.921Z,4.60
2019-01-17T14:34:11.855Z,4.60
2019-01-17T14:36:42.750Z,4.49
2019-01-17T14:39:13.648Z,4.38
2019-01-17T14:41:44.573Z,4.50
2019-01-17T14:44:15.449Z,4.44
2019-01-17T14:46:46.401Z,4.32
2019-01-17T14:49:17.297Z,4.33
2019-01-17T14:51:48.487Z,4.31
2019-01-17T14:54:19.403Z,4.40
2019-01-17T14:56:50.280Z,4.12
2019-01-17T14:59:21.221Z,4.11
2019-01-17T15:01:52.121Z,4.22
2019-01-17T15:04:23.092Z,4.17
2019-01-17T15:06:54.327Z,4.18
2019-01-17T15:09:25.216Z,4.15
2019-01-17T15:11:56.170Z,4.13
2019-01-17T15:14:27.056Z,4.16
2019-01-17T15:16:58.142Z,4.16
2019-01-17T15:19:29.094Z,4.17
2019-01-17T15:22:00.332Z,4.16
2019-01-17T15:24:31.210Z,4.13
2019-01-17T15:27:02.127Z,4.05
2019-01-17T15:29:33.297Z,3.95
2019-01-17T15:32:04.213Z,3.97
2019-01-17T15:34:35.148Z,3.99
2019-01-17T15:37:06.332Z,3.83
2019-01-17T15:39:37.263Z,3.87
2019-01-17T15:42:08.178Z,3.95
2019-01-17T15:44:39.076Z,3.79
2019-01-17T15:47:13.233Z,3.80
2019-01-17T15:49:42.667Z,3.81
2019-01-17T15:52:13.558Z,3.71
2019-01-17T15:54:44.514Z,3.74
2019-01-17T15:57:15.743Z,3.72
2019-01-17T15:59:46.614Z,3.86
2019-01-17T16:02:17.520Z,3.92
2019-01-17T16:04:48.396Z,3.88
2019-01-17T16:07:19.618Z,3.88
2019-01-17T16:09:50.495Z,3.80
2019-01-17T16:12:21.460Z,3.70
2019-01-17T16:14:52.392Z,3.68
2019-01-17T16:17:23.287Z,3.78
2019-01-17T16:19:54.218Z,3.78
2019-01-17T16:22:25.139Z,3.72
2019-01-17T16:24:56.086Z,3.69
2019-01-17T16:27:27.381Z,3.72
2019-01-17T16:30:00.551Z,3.64
2019-01-17T16:32:31.523Z,3.60
2019-01-17T16:35:02.409Z,3.63
2019-01-17T16:37:33.311Z,3.64
2019-01-17T16:40:04.433Z,3.60
2019-01-17T16:42:35.314Z,3.53
2019-01-17T16:45:07.895Z,3.61
2019-01-17T16:47:38.792Z,3.50
2019-01-17T16:50:17.952Z,3.48
2019-01-17T16:52:48.826Z,3.40
2019-01-17T16:55:19.734Z,3.30
2019-01-17T16:57:50.650Z,3.29
2019-01-17T17:00:38.295Z,3.19
2019-01-17T17:03:09.244Z,3.19
2019-01-17T17:05:40.421Z,3.32
2019-01-17T17:08:11.551Z,3.25
2019-01-17T17:10:42.749Z,3.25
2019-01-17T17:13:14.968Z,3.33
2019-01-17T17:15:45.968Z,3.29
2019-01-17T17:18:16.894Z,3.23
2019-01-17T17:20:47.827Z,3.21
2019-01-17T17:23:18.815Z,3.23
2019-01-17T17:25:49.764Z,3.36
2019-01-17T17:28:20.999Z,3.25
2019-01-17T17:30:53.184Z,3.37
2019-01-17T17:33:24.105Z,3.37
2019-01-17T17:35:55.012Z,3.34
2019-01-17T17:38:26.211Z,3.21
2019-01-17T17:40:57.227Z,3.26
2019-01-17T17:43:28.258Z,3.18
2019-01-17T17:46:01.156Z,3.20
2019-01-17T17:48:32.059Z,3.19
2019-01-17T17:51:03.234Z,3.14
2019-01-17T17:53:34.239Z,3.15
2019-01-17T17:56:05.308Z,3.09
2019-01-17T17:58:36.243Z,3.02
2019-01-17T18:01:22.608Z,3.05
2019-01-17T18:03:53.863Z,3.12
2019-01-17T18:06:25.112Z,2.96
2019-01-17T18:08:56.024Z,3.04
2019-01-17T18:11:26.971Z,2.90
2019-01-17T18:13:57.858Z,2.94
2019-01-17T18:16:28.818Z,2.87
2019-01-17T18:18:59.777Z,2.90
2019-01-17T18:21:30.968Z,2.85
2019-01-17T18:24:01.880Z,2.91
2019-01-17T18:26:32.797Z,2.77
2019-01-17T18:29:03.761Z,2.81
2019-01-17T18:31:34.641Z,2.62
2019-01-17T18:34:08.068Z,2.66
2019-01-17T18:36:39.264Z,2.48
2019-01-17T18:39:13.994Z,2.42
2019-01-17T18:41:45.609Z,2.43
2019-01-17T18:44:17.354Z,2.45
2019-01-17T18:46:48.387Z,2.45
2019-01-17T18:49:19.277Z,2.46
2019-01-17T18:51:51.144Z,2.49
2019-01-17T18:54:22.057Z,2.43
2019-01-17T18:56:53.020Z,2.34
2019-01-17T18:59:24.250Z,2.36
2019-01-17T19:01:55.436Z,2.18
2019-01-17T19:04:26.672Z,2.17
2019-01-17T19:06:57.587Z,2.21
2019-01-17T19:09:29.453Z,2.16
2019-01-17T19:12:02.834Z,2.14
2019-01-17T19:14:38.934Z,2.13
2019-01-17T19:17:11.658Z,2.25
2019-01-17T19:19:44.896Z,2.17
2019-01-17T19:22:15.804Z,2.27
2019-01-17T19:24:48.974Z,2.24
2019-01-17T19:27:19.849Z,2.26
2019-01-17T19:29:51.371Z,2.23
2019-01-17T19:32:22.260Z,2.18
2019-01-17T19:34:55.876Z,2.16
2019-01-17T19:37:27.075Z,2.05
2019-01-17T19:39:58.056Z,2.05
2019-01-17T19:42:29.017Z,2.03
2019-01-17T19:44:59.926Z,2.09
2019-01-17T19:47:31.198Z,2.11
2019-01-17T19:50:02.689Z,2.12
2019-01-17T19:52:33.585Z,2.16
2019-01-17T19:55:05.407Z,2.28
2019-01-17T19:57:36.588Z,2.29
2019-01-17T20:00:10.523Z,2.31
2019-01-17T20:02:41.989Z,2.36
2019-01-17T20:05:15.354Z,2.41
2019-01-17T20:07:46.443Z,2.42
2019-01-17T20:10:25.841Z,2.33
2019-01-17T20:12:56.972Z,2.42
2019-01-17T20:15:27.993Z,2.42
2019-01-17T20:18:00.299Z,2.35
2019-01-17T20:20:33.977Z,2.48
2019-01-17T20:23:05.932Z,2.35
2019-01-17T20:25:37.308Z,2.47
2019-01-17T20:28:08.496Z,2.37
2019-01-17T20:30:39.691Z,2.40
2019-01-17T20:33:11.016Z,2.41
2019-01-17T20:35:41.972Z,2.31
2019-01-17T20:38:13.219Z,2.25
2019-01-17T20:40:44.103Z,2.36
2019-01-17T20:43:16.453Z,2.36
2019-01-17T20:45:47.365Z,2.26
2019-01-17T20:48:18.399Z,2.18
2019-01-17T20:50:50.941Z,2.16
2019-01-17T20:53:22.689Z,2.10
2019-01-17T20:55:54.383Z,2.19
2019-01-17T20:58:26.227Z,2.14
2019-01-17T21:02:16.679Z,2.05
2019-01-17T21:04:47.851Z,2.08
2019-01-17T21:07:19.319Z,1.96
2019-01-17T21:09:50.256Z,1.92
2019-01-17T21:12:21.164Z,1.96
2019-01-17T21:14:52.078Z,1.98
2019-01-17T21:17:23.304Z,1.90
2019-01-17T21:19:56.775Z,1.85
2019-01-17T21:22:27.972Z,1.70
2019-01-17T21:24:59.228Z,1.77
2019-01-17T21:27:30.129Z,1.72
2019-01-17T21:30:01.998Z,1.74
2019-01-17T21:32:33.267Z,1.79
2019-01-17T21:35:04.660Z,1.77
2019-01-17T21:37:35.558Z,1.68
2019-01-17T21:40:09.219Z,1.69
2019-01-17T21:42:40.223Z,1.67
2019-01-17T21:45:14.742Z,1.71
2019-01-17T21:47:46.021Z,1.75
2019-01-17T21:50:20.975Z,1.69
2019-01-17T21:52:51.950Z,1.63
2019-01-17T21:55:22.850Z,1.52
2019-01-17T21:57:53.855Z,1.54
2019-01-17T22:00:26.640Z,1.51
2019-01-17T22:02:57.792Z,1.68
2019-01-17T22:05:28.983Z,1.66
2019-01-17T22:08:00.165Z,1.66
2019-01-17T22:10:31.118Z,1.71
2019-01-17T22:13:02.009Z,1.84
2019-01-17T22:15:32.895Z,1.78
2019-01-17T22:18:04.118Z,1.79
2019-01-17T22:20:35.017Z,1.80
2019-01-17T22:23:05.894Z,1.69
2019-01-17T22:25:36.824Z,1.83
2019-01-17T22:28:08.009Z,1.82
2019-01-17T22:30:39.300Z,1.88
2019-01-17T22:33:10.521Z,1.81
2019-01-17T22:35:41.507Z,1.84
2019-01-17T22:38:12.426Z,1.82
2019-01-17T22:40:43.641Z,1.80
2019-01-17T22:43:14.521Z,1.83
2019-01-17T22:45:45.414Z,1.87
2019-01-17T22:48:16.645Z,1.73
2019-01-17T22:50:47.630Z,1.72
2019-01-17T22:53:18.508Z,1.66
2019-01-17T22:55:49.742Z,1.68
2019-01-17T22:58:20.632Z,1.70
2019-01-17T23:01:24.683Z,1.69
2019-01-17T23:03:57.283Z,1.81
2019-01-17T23:06:28.168Z,1.79
2019-01-17T23:08:59.099Z,1.67
2019-01-17T23:11:29.981Z,1.67
2019-01-17T23:14:00.871Z,1.70
2019-01-17T23:16:31.821Z,1.68
2019-01-17T23:19:02.782Z,1.55
2019-01-17T23:21:33.671Z,1.43
2019-01-17T23:24:04.815Z,1.33
2019-01-17T23:26:35.721Z,1.23
2019-01-17T23:29:07.014Z,1.32
2019-01-17T23:31:37.945Z,1.29
2019-01-17T23:34:08.838Z,1.17
2019-01-17T23:36:39.759Z,1.10
2019-01-17T23:39:12.258Z,1.04
2019-01-17T23:41:43.151Z,1.12
2019-01-17T23:44:14.119Z,1.07
2019-01-17T23:46:45.057Z,0.96
2019-01-17T23:49:15.940Z,0.97
2019-01-17T23:51:46.817Z,0.87
2019-01-17T23:54:18.057Z,0.91
2019-01-17T23:56:48.926Z,0.88
2019-01-17T23:59:22.782Z,0.88
